sensor_id;sensor_type;location;lat;lon;timestamp;P1;durP1;ratioP1;P2;durP2;ratioP2
69047;SDS011;56119;50.118;8.642;2023-11-21T00:01:37;8.80;;;3.67;;
69047;SDS011;56119;50.118;8.642;2023-11-21T00:04:03;5.70;;;3.30;;
69047;SDS011;56119;50.118;8.642;2023-11-21T00:06:29;9.00;;;3.53;;
69047;SDS011;56119;50.118;8.642;2023-11-21T00:08:55;6.20;;;2.65;;
69047;SDS011;56119;50.118;8.642;2023-11-21T00:11:21;7.28;;;3.38;;
69047;SDS011;56119;50.118;8.642;2023-11-21T00:13:47;6.85;;;2.70;;
69047;SDS011;56119;50.118;8.642;2023-11-21T00:16:13;6.32;;;2.80;;
69047;SDS011;56119;50.118;8.642;2023-11-21T00:18:39;11.40;;;3.53;;
69047;SDS011;56119;50.118;8.642;2023-11-21T00:21:05;8.05;;;3.28;;
69047;SDS011;56119;50.118;8.642;2023-11-21T00:23:31;6.05;;;3.55;;
69047;SDS011;56119;50.118;8.642;2023-11-21T00:25:57;7.90;;;3.63;;
69047;SDS011;56119;50.118;8.642;2023-11-21T00:28:23;7.97;;;3.40;;
69047;SDS011;56119;50.118;8.642;2023-11-21T00:30:50;6.97;;;3.33;;
69047;SDS011;56119;50.118;8.642;2023-11-21T00:33:16;7.93;;;2.85;;
69047;SDS011;56119;50.118;8.642;2023-11-21T00:35:41;8.25;;;3.00;;
69047;SDS011;56119;50.118;8.642;2023-11-21T00:38:07;5.13;;;3.28;;
69047;SDS011;56119;50.118;8.642;2023-11-21T00:40:37;7.32;;;3.47;;
69047;SDS011;56119;50.118;8.642;2023-11-21T00:43:03;8.85;;;3.60;;
69047;SDS011;56119;50.118;8.642;2023-11-21T00:45:29;8.57;;;4.07;;
69047;SDS011;56119;50.118;8.642;2023-11-21T00:47:55;6.63;;;3.70;;
69047;SDS011;56119;50.118;8.642;2023-11-21T00:50:21;9.18;;;3.65;;
69047;SDS011;56119;50.118;8.642;2023-11-21T00:52:47;7.72;;;3.25;;
69047;SDS011;56119;50.118;8.642;2023-11-21T00:55:13;5.47;;;3.10;;
69047;SDS011;56119;50.118;8.642;2023-11-21T00:57:39;8.23;;;4.40;;
69047;SDS011;56119;50.118;8.642;2023-11-21T01:00:05;9.00;;;3.80;;
69047;SDS011;56119;50.118;8.642;2023-11-21T01:02:39;7.18;;;4.43;;
69047;SDS011;56119;50.118;8.642;2023-11-21T01:05:05;8.10;;;4.07;;
69047;SDS011;56119;50.118;8.642;2023-11-21T01:07:33;8.98;;;4.45;;
69047;SDS011;56119;50.118;8.642;2023-11-21T01:09:58;10.95;;;4.50;;
69047;SDS011;56119;50.118;8.642;2023-11-21T01:12:24;7.20;;;4.78;;
69047;SDS011;56119;50.118;8.642;2023-11-21T01:14:50;8.70;;;4.57;;
69047;SDS011;56119;50.118;8.642;2023-11-21T01:17:16;7.57;;;4.07;;
69047;SDS011;56119;50.118;8.642;2023-11-21T01:19:43;7.95;;;4.55;;
69047;SDS011;56119;50.118;8.642;2023-11-21T01:22:09;9.57;;;5.30;;
69047;SDS011;56119;50.118;8.642;2023-11-21T01:24:37;6.85;;;4.70;;
69047;SDS011;56119;50.118;8.642;2023-11-21T01:27:03;11.70;;;5.38;;
69047;SDS011;56119;50.118;8.642;2023-11-21T01:29:29;9.43;;;6.30;;
69047;SDS011;56119;50.118;8.642;2023-11-21T01:31:55;7.63;;;5.25;;
69047;SDS011;56119;50.118;8.642;2023-11-21T01:34:22;11.50;;;5.88;;
69047;SDS011;56119;50.118;8.642;2023-11-21T01:36:48;8.18;;;5.30;;
69047;SDS011;56119;50.118;8.642;2023-11-21T01:39:15;9.25;;;5.43;;
69047;SDS011;56119;50.118;8.642;2023-11-21T01:41:44;7.75;;;5.60;;
69047;SDS011;56119;50.118;8.642;2023-11-21T01:44:10;11.60;;;6.30;;
69047;SDS011;56119;50.118;8.642;2023-11-21T01:46:36;8.10;;;5.50;;
69047;SDS011;56119;50.118;8.642;2023-11-21T01:49:03;8.15;;;6.10;;
69047;SDS011;56119;50.118;8.642;2023-11-21T01:51:29;12.73;;;6.07;;
69047;SDS011;56119;50.118;8.642;2023-11-21T01:53:56;15.10;;;6.93;;
69047;SDS011;56119;50.118;8.642;2023-11-21T01:56:22;9.65;;;6.47;;
69047;SDS011;56119;50.118;8.642;2023-11-21T01:58:48;9.95;;;5.93;;
69047;SDS011;56119;50.118;8.642;2023-11-21T02:01:14;11.20;;;6.88;;
69047;SDS011;56119;50.118;8.642;2023-11-21T02:03:40;13.95;;;7.15;;
69047;SDS011;56119;50.118;8.642;2023-11-21T02:06:06;13.60;;;9.20;;
69047;SDS011;56119;50.118;8.642;2023-11-21T02:08:33;11.77;;;7.07;;
69047;SDS011;56119;50.118;8.642;2023-11-21T02:10:59;13.90;;;7.18;;
69047;SDS011;56119;50.118;8.642;2023-11-21T02:13:27;14.43;;;8.13;;
69047;SDS011;56119;50.118;8.642;2023-11-21T02:15:53;13.63;;;8.68;;
69047;SDS011;56119;50.118;8.642;2023-11-21T02:18:19;13.70;;;9.10;;
69047;SDS011;56119;50.118;8.642;2023-11-21T02:20:47;11.57;;;7.20;;
69047;SDS011;56119;50.118;8.642;2023-11-21T02:23:13;11.65;;;8.07;;
69047;SDS011;56119;50.118;8.642;2023-11-21T02:25:39;10.02;;;7.10;;
69047;SDS011;56119;50.118;8.642;2023-11-21T02:28:07;13.85;;;8.38;;
69047;SDS011;56119;50.118;8.642;2023-11-21T02:30:34;14.32;;;9.85;;
69047;SDS011;56119;50.118;8.642;2023-11-21T02:33:00;11.27;;;8.23;;
69047;SDS011;56119;50.118;8.642;2023-11-21T02:35:27;17.10;;;9.50;;
69047;SDS011;56119;50.118;8.642;2023-11-21T02:37:53;17.92;;;9.95;;
69047;SDS011;56119;50.118;8.642;2023-11-21T02:40:19;14.85;;;8.95;;
69047;SDS011;56119;50.118;8.642;2023-11-21T02:42:48;15.23;;;9.48;;
69047;SDS011;56119;50.118;8.642;2023-11-21T02:45:18;14.40;;;9.02;;
69047;SDS011;56119;50.118;8.642;2023-11-21T02:47:45;13.77;;;8.48;;
69047;SDS011;56119;50.118;8.642;2023-11-21T02:50:11;8.82;;;7.07;;
69047;SDS011;56119;50.118;8.642;2023-11-21T02:52:38;10.60;;;7.13;;
69047;SDS011;56119;50.118;8.642;2023-11-21T02:55:05;9.50;;;6.97;;
69047;SDS011;56119;50.118;8.642;2023-11-21T02:57:32;9.43;;;6.50;;
69047;SDS011;56119;50.118;8.642;2023-11-21T02:59:58;8.85;;;5.95;;
69047;SDS011;56119;50.118;8.642;2023-11-21T03:02:25;10.65;;;7.10;;
69047;SDS011;56119;50.118;8.642;2023-11-21T03:04:51;10.38;;;6.05;;
69047;SDS011;56119;50.118;8.642;2023-11-21T03:07:17;7.25;;;5.78;;
69047;SDS011;56119;50.118;8.642;2023-11-21T03:09:46;9.68;;;5.95;;
69047;SDS011;56119;50.118;8.642;2023-11-21T03:12:12;8.15;;;5.78;;
69047;SDS011;56119;50.118;8.642;2023-11-21T03:14:41;5.63;;;4.65;;
69047;SDS011;56119;50.118;8.642;2023-11-21T03:17:07;6.30;;;5.22;;
69047;SDS011;56119;50.118;8.642;2023-11-21T03:19:33;8.30;;;5.00;;
69047;SDS011;56119;50.118;8.642;2023-11-21T03:21:59;7.13;;;4.85;;
69047;SDS011;56119;50.118;8.642;2023-11-21T03:24:25;6.40;;;5.20;;
69047;SDS011;56119;50.118;8.642;2023-11-21T03:26:51;6.03;;;4.60;;
69047;SDS011;56119;50.118;8.642;2023-11-21T03:29:17;6.43;;;4.60;;
69047;SDS011;56119;50.118;8.642;2023-11-21T03:31:43;6.35;;;5.25;;
69047;SDS011;56119;50.118;8.642;2023-11-21T03:34:14;5.60;;;5.00;;
69047;SDS011;56119;50.118;8.642;2023-11-21T03:36:40;7.88;;;5.18;;
69047;SDS011;56119;50.118;8.642;2023-11-21T03:39:06;7.57;;;5.60;;
69047;SDS011;56119;50.118;8.642;2023-11-21T03:41:32;7.40;;;5.72;;
69047;SDS011;56119;50.118;8.642;2023-11-21T03:43:59;7.15;;;5.25;;
69047;SDS011;56119;50.118;8.642;2023-11-21T03:46:25;8.18;;;5.90;;
69047;SDS011;56119;50.118;8.642;2023-11-21T03:48:51;6.65;;;4.90;;
69047;SDS011;56119;50.118;8.642;2023-11-21T03:51:17;10.70;;;6.90;;
69047;SDS011;56119;50.118;8.642;2023-11-21T03:53:43;9.70;;;6.40;;
69047;SDS011;56119;50.118;8.642;2023-11-21T03:56:09;8.80;;;6.03;;
69047;SDS011;56119;50.118;8.642;2023-11-21T03:58:35;7.28;;;5.80;;
69047;SDS011;56119;50.118;8.642;2023-11-21T04:01:01;8.95;;;6.38;;
69047;SDS011;56119;50.118;8.642;2023-11-21T04:03:27;9.25;;;6.65;;
69047;SDS011;56119;50.118;8.642;2023-11-21T04:05:53;9.55;;;7.60;;
69047;SDS011;56119;50.118;8.642;2023-11-21T04:08:19;9.88;;;7.60;;
69047;SDS011;56119;50.118;8.642;2023-11-21T04:10:45;8.80;;;6.93;;
69047;SDS011;56119;50.118;8.642;2023-11-21T04:13:10;7.95;;;6.32;;
69047;SDS011;56119;50.118;8.642;2023-11-21T04:15:37;9.80;;;6.78;;
69047;SDS011;56119;50.118;8.642;2023-11-21T04:18:03;9.73;;;6.78;;
69047;SDS011;56119;50.118;8.642;2023-11-21T04:20:29;10.73;;;7.15;;
69047;SDS011;56119;50.118;8.642;2023-11-21T04:22:55;11.15;;;7.20;;
69047;SDS011;56119;50.118;8.642;2023-11-21T04:25:21;10.48;;;7.32;;
69047;SDS011;56119;50.118;8.642;2023-11-21T04:27:48;9.80;;;7.60;;
69047;SDS011;56119;50.118;8.642;2023-11-21T04:30:14;9.27;;;6.38;;
69047;SDS011;56119;50.118;8.642;2023-11-21T04:32:40;8.70;;;6.75;;
69047;SDS011;56119;50.118;8.642;2023-11-21T04:35:07;8.93;;;6.28;;
69047;SDS011;56119;50.118;8.642;2023-11-21T04:37:33;8.23;;;5.80;;
69047;SDS011;56119;50.118;8.642;2023-11-21T04:39:59;8.75;;;5.40;;
69047;SDS011;56119;50.118;8.642;2023-11-21T04:42:25;7.07;;;5.15;;
69047;SDS011;56119;50.118;8.642;2023-11-21T04:44:51;6.00;;;5.03;;
69047;SDS011;56119;50.118;8.642;2023-11-21T04:47:18;5.45;;;4.30;;
69047;SDS011;56119;50.118;8.642;2023-11-21T04:49:45;5.25;;;4.05;;
69047;SDS011;56119;50.118;8.642;2023-11-21T04:52:14;9.18;;;5.93;;
69047;SDS011;56119;50.118;8.642;2023-11-21T04:54:40;9.88;;;6.82;;
69047;SDS011;56119;50.118;8.642;2023-11-21T04:57:07;10.60;;;7.03;;
69047;SDS011;56119;50.118;8.642;2023-11-21T04:59:34;10.10;;;6.75;;
69047;SDS011;56119;50.118;8.642;2023-11-21T05:02:00;12.02;;;7.88;;
69047;SDS011;56119;50.118;8.642;2023-11-21T05:04:26;9.82;;;7.05;;
69047;SDS011;56119;50.118;8.642;2023-11-21T05:06:52;12.20;;;7.90;;
69047;SDS011;56119;50.118;8.642;2023-11-21T05:09:18;16.58;;;9.65;;
69047;SDS011;56119;50.118;8.642;2023-11-21T05:11:44;17.83;;;10.32;;
69047;SDS011;56119;50.118;8.642;2023-11-21T05:14:10;17.73;;;11.15;;
69047;SDS011;56119;50.118;8.642;2023-11-21T05:16:36;24.70;;;13.30;;
69047;SDS011;56119;50.118;8.642;2023-11-21T05:19:03;25.55;;;14.30;;
69047;SDS011;56119;50.118;8.642;2023-11-21T05:21:29;27.42;;;15.05;;
69047;SDS011;56119;50.118;8.642;2023-11-21T05:23:57;32.50;;;16.92;;
69047;SDS011;56119;50.118;8.642;2023-11-21T05:26:23;18.48;;;12.02;;
69047;SDS011;56119;50.118;8.642;2023-11-21T05:28:49;31.70;;;15.32;;
69047;SDS011;56119;50.118;8.642;2023-11-21T05:31:15;33.22;;;16.60;;
69047;SDS011;56119;50.118;8.642;2023-11-21T05:33:41;32.58;;;16.90;;
69047;SDS011;56119;50.118;8.642;2023-11-21T05:36:07;30.08;;;16.25;;
69047;SDS011;56119;50.118;8.642;2023-11-21T05:38:35;36.80;;;18.63;;
69047;SDS011;56119;50.118;8.642;2023-11-21T05:41:01;35.40;;;18.15;;
69047;SDS011;56119;50.118;8.642;2023-11-21T05:43:28;32.47;;;16.50;;
69047;SDS011;56119;50.118;8.642;2023-11-21T05:45:55;21.23;;;12.63;;
69047;SDS011;56119;50.118;8.642;2023-11-21T05:48:21;37.60;;;16.42;;
69047;SDS011;56119;50.118;8.642;2023-11-21T05:50:48;36.55;;;17.15;;
69047;SDS011;56119;50.118;8.642;2023-11-21T05:53:14;34.22;;;17.33;;
69047;SDS011;56119;50.118;8.642;2023-11-21T05:55:40;34.95;;;16.67;;
69047;SDS011;56119;50.118;8.642;2023-11-21T05:58:07;32.42;;;16.30;;
69047;SDS011;56119;50.118;8.642;2023-11-21T06:00:33;34.63;;;15.93;;
69047;SDS011;56119;50.118;8.642;2023-11-21T06:02:59;31.90;;;15.90;;
69047;SDS011;56119;50.118;8.642;2023-11-21T06:05:25;31.33;;;15.73;;
69047;SDS011;56119;50.118;8.642;2023-11-21T06:07:55;38.22;;;16.23;;
69047;SDS011;56119;50.118;8.642;2023-11-21T06:10:23;29.02;;;13.93;;
69047;SDS011;56119;50.118;8.642;2023-11-21T06:12:50;30.02;;;15.13;;
69047;SDS011;56119;50.118;8.642;2023-11-21T06:15:16;30.30;;;14.88;;
69047;SDS011;56119;50.118;8.642;2023-11-21T06:17:44;27.00;;;13.93;;
69047;SDS011;56119;50.118;8.642;2023-11-21T06:20:14;21.27;;;11.88;;
69047;SDS011;56119;50.118;8.642;2023-11-21T06:22:41;21.90;;;11.57;;
69047;SDS011;56119;50.118;8.642;2023-11-21T06:27:38;15.98;;;9.68;;
69047;SDS011;56119;50.118;8.642;2023-11-21T06:30:05;16.45;;;8.18;;
69047;SDS011;56119;50.118;8.642;2023-11-21T06:32:31;16.92;;;8.48;;
69047;SDS011;56119;50.118;8.642;2023-11-21T06:34:57;14.75;;;8.50;;
69047;SDS011;56119;50.118;8.642;2023-11-21T06:37:24;10.67;;;5.90;;
69047;SDS011;56119;50.118;8.642;2023-11-21T06:39:50;11.65;;;7.10;;
69047;SDS011;56119;50.118;8.642;2023-11-21T06:42:17;9.32;;;5.32;;
69047;SDS011;56119;50.118;8.642;2023-11-21T06:44:46;10.98;;;7.03;;
69047;SDS011;56119;50.118;8.642;2023-11-21T06:47:13;9.38;;;6.53;;
69047;SDS011;56119;50.118;8.642;2023-11-21T06:49:39;10.65;;;6.05;;
69047;SDS011;56119;50.118;8.642;2023-11-21T06:52:05;13.48;;;5.88;;
69047;SDS011;56119;50.118;8.642;2023-11-21T06:54:31;10.88;;;7.05;;
69047;SDS011;56119;50.118;8.642;2023-11-21T06:56:57;10.20;;;5.60;;
69047;SDS011;56119;50.118;8.642;2023-11-21T06:59:23;8.73;;;5.80;;
69047;SDS011;56119;50.118;8.642;2023-11-21T07:01:50;8.23;;;5.13;;
69047;SDS011;56119;50.118;8.642;2023-11-21T07:04:16;10.30;;;6.15;;
69047;SDS011;56119;50.118;8.642;2023-11-21T07:06:43;11.27;;;6.75;;
69047;SDS011;56119;50.118;8.642;2023-11-21T07:09:09;9.00;;;6.03;;
69047;SDS011;56119;50.118;8.642;2023-11-21T07:11:36;9.85;;;6.20;;
69047;SDS011;56119;50.118;8.642;2023-11-21T07:14:03;10.07;;;5.85;;
69047;SDS011;56119;50.118;8.642;2023-11-21T07:16:33;10.80;;;7.10;;
69047;SDS011;56119;50.118;8.642;2023-11-21T07:19:00;10.32;;;7.10;;
69047;SDS011;56119;50.118;8.642;2023-11-21T07:21:26;11.45;;;7.88;;
69047;SDS011;56119;50.118;8.642;2023-11-21T07:23:52;11.18;;;7.47;;
69047;SDS011;56119;50.118;8.642;2023-11-21T07:26:18;12.45;;;8.23;;
69047;SDS011;56119;50.118;8.642;2023-11-21T07:28:43;12.18;;;7.47;;
69047;SDS011;56119;50.118;8.642;2023-11-21T07:31:10;12.85;;;8.27;;
69047;SDS011;56119;50.118;8.642;2023-11-21T07:33:37;14.45;;;8.45;;
69047;SDS011;56119;50.118;8.642;2023-11-21T07:36:03;13.63;;;8.02;;
69047;SDS011;56119;50.118;8.642;2023-11-21T07:38:29;14.05;;;7.85;;
69047;SDS011;56119;50.118;8.642;2023-11-21T07:40:55;14.18;;;8.65;;
69047;SDS011;56119;50.118;8.642;2023-11-21T07:43:21;12.95;;;9.10;;
69047;SDS011;56119;50.118;8.642;2023-11-21T07:45:47;15.30;;;9.68;;
69047;SDS011;56119;50.118;8.642;2023-11-21T07:48:13;13.68;;;9.77;;
69047;SDS011;56119;50.118;8.642;2023-11-21T07:50:39;16.52;;;9.43;;
69047;SDS011;56119;50.118;8.642;2023-11-21T07:53:05;13.20;;;8.63;;
69047;SDS011;56119;50.118;8.642;2023-11-21T07:55:34;13.88;;;9.52;;
69047;SDS011;56119;50.118;8.642;2023-11-21T07:58:01;13.30;;;8.57;;
69047;SDS011;56119;50.118;8.642;2023-11-21T08:00:28;14.43;;;8.05;;
69047;SDS011;56119;50.118;8.642;2023-11-21T08:02:56;13.15;;;8.60;;
69047;SDS011;56119;50.118;8.642;2023-11-21T08:05:22;16.15;;;8.48;;
69047;SDS011;56119;50.118;8.642;2023-11-21T08:07:48;13.68;;;8.38;;
69047;SDS011;56119;50.118;8.642;2023-11-21T08:10:14;12.95;;;8.52;;
69047;SDS011;56119;50.118;8.642;2023-11-21T08:12:41;14.00;;;7.88;;
69047;SDS011;56119;50.118;8.642;2023-11-21T08:15:07;12.95;;;7.60;;
69047;SDS011;56119;50.118;8.642;2023-11-21T08:17:34;12.75;;;8.15;;
69047;SDS011;56119;50.118;8.642;2023-11-21T08:20:00;11.63;;;6.97;;
69047;SDS011;56119;50.118;8.642;2023-11-21T08:22:28;14.52;;;8.57;;
69047;SDS011;56119;50.118;8.642;2023-11-21T08:24:54;14.38;;;10.05;;
69047;SDS011;56119;50.118;8.642;2023-11-21T08:27:20;12.48;;;8.23;;
69047;SDS011;56119;50.118;8.642;2023-11-21T08:29:46;11.75;;;8.27;;
69047;SDS011;56119;50.118;8.642;2023-11-21T08:32:12;12.38;;;7.53;;
69047;SDS011;56119;50.118;8.642;2023-11-21T08:34:39;12.90;;;7.82;;
69047;SDS011;56119;50.118;8.642;2023-11-21T08:37:07;11.57;;;7.25;;
69047;SDS011;56119;50.118;8.642;2023-11-21T08:39:33;12.70;;;7.72;;
69047;SDS011;56119;50.118;8.642;2023-11-21T08:41:59;13.77;;;7.45;;
69047;SDS011;56119;50.118;8.642;2023-11-21T08:44:26;13.20;;;8.65;;
69047;SDS011;56119;50.118;8.642;2023-11-21T08:46:52;11.68;;;8.02;;
69047;SDS011;56119;50.118;8.642;2023-11-21T08:49:18;12.95;;;8.88;;
69047;SDS011;56119;50.118;8.642;2023-11-21T08:51:44;10.50;;;6.90;;
69047;SDS011;56119;50.118;8.642;2023-11-21T08:54:10;11.45;;;7.90;;
69047;SDS011;56119;50.118;8.642;2023-11-21T08:56:36;14.07;;;7.55;;
69047;SDS011;56119;50.118;8.642;2023-11-21T08:59:02;17.98;;;7.60;;
69047;SDS011;56119;50.118;8.642;2023-11-21T09:01:29;12.20;;;7.50;;
69047;SDS011;56119;50.118;8.642;2023-11-21T09:03:56;12.60;;;6.75;;
69047;SDS011;56119;50.118;8.642;2023-11-21T09:06:23;10.73;;;6.47;;
69047;SDS011;56119;50.118;8.642;2023-11-21T09:08:49;11.80;;;5.55;;
69047;SDS011;56119;50.118;8.642;2023-11-21T09:11:15;11.02;;;7.13;;
69047;SDS011;56119;50.118;8.642;2023-11-21T09:13:41;11.18;;;7.05;;
69047;SDS011;56119;50.118;8.642;2023-11-21T09:16:07;9.05;;;6.60;;
69047;SDS011;56119;50.118;8.642;2023-11-21T09:18:33;14.27;;;6.35;;
69047;SDS011;56119;50.118;8.642;2023-11-21T09:20:59;9.02;;;5.97;;
69047;SDS011;56119;50.118;8.642;2023-11-21T09:23:25;8.27;;;5.05;;
69047;SDS011;56119;50.118;8.642;2023-11-21T09:25:51;12.02;;;5.55;;
69047;SDS011;56119;50.118;8.642;2023-11-21T09:28:21;10.35;;;5.82;;
69047;SDS011;56119;50.118;8.642;2023-11-21T09:30:47;9.73;;;5.20;;
69047;SDS011;56119;50.118;8.642;2023-11-21T09:33:15;8.73;;;5.90;;
69047;SDS011;56119;50.118;8.642;2023-11-21T09:35:41;10.60;;;6.15;;
69047;SDS011;56119;50.118;8.642;2023-11-21T09:38:08;10.52;;;5.78;;
69047;SDS011;56119;50.118;8.642;2023-11-21T09:40:35;9.32;;;5.22;;
69047;SDS011;56119;50.118;8.642;2023-11-21T09:43:02;13.02;;;5.78;;
69047;SDS011;56119;50.118;8.642;2023-11-21T09:45:34;9.52;;;5.10;;
69047;SDS011;56119;50.118;8.642;2023-11-21T09:48:00;10.55;;;5.82;;
69047;SDS011;56119;50.118;8.642;2023-11-21T09:50:26;9.18;;;4.78;;
69047;SDS011;56119;50.118;8.642;2023-11-21T09:55:19;10.85;;;4.60;;
69047;SDS011;56119;50.118;8.642;2023-11-21T09:57:49;11.45;;;5.38;;
69047;SDS011;56119;50.118;8.642;2023-11-21T10:00:15;8.35;;;4.68;;
69047;SDS011;56119;50.118;8.642;2023-11-21T10:02:43;9.93;;;5.25;;
69047;SDS011;56119;50.118;8.642;2023-11-21T10:05:09;8.40;;;5.45;;
69047;SDS011;56119;50.118;8.642;2023-11-21T10:07:37;9.38;;;4.90;;
69047;SDS011;56119;50.118;8.642;2023-11-21T10:10:06;10.02;;;5.88;;
69047;SDS011;56119;50.118;8.642;2023-11-21T10:12:33;8.70;;;5.25;;
69047;SDS011;56119;50.118;8.642;2023-11-21T10:15:00;12.57;;;5.75;;
69047;SDS011;56119;50.118;8.642;2023-11-21T10:17:31;9.35;;;6.05;;
69047;SDS011;56119;50.118;8.642;2023-11-21T10:20:03;10.27;;;4.80;;
69047;SDS011;56119;50.118;8.642;2023-11-21T10:22:36;10.65;;;5.75;;
69047;SDS011;56119;50.118;8.642;2023-11-21T10:25:02;13.13;;;5.78;;
69047;SDS011;56119;50.118;8.642;2023-11-21T10:27:28;9.55;;;5.40;;
69047;SDS011;56119;50.118;8.642;2023-11-21T10:29:54;10.32;;;4.93;;
69047;SDS011;56119;50.118;8.642;2023-11-21T10:32:20;12.00;;;5.38;;
69047;SDS011;56119;50.118;8.642;2023-11-21T10:34:55;10.60;;;6.10;;
69047;SDS011;56119;50.118;8.642;2023-11-21T10:37:22;9.52;;;5.25;;
69047;SDS011;56119;50.118;8.642;2023-11-21T10:39:48;8.05;;;5.43;;
69047;SDS011;56119;50.118;8.642;2023-11-21T10:42:15;9.73;;;5.05;;
69047;SDS011;56119;50.118;8.642;2023-11-21T10:44:45;10.18;;;5.72;;
69047;SDS011;56119;50.118;8.642;2023-11-21T10:47:11;10.98;;;6.18;;
69047;SDS011;56119;50.118;8.642;2023-11-21T10:49:38;10.45;;;6.07;;
69047;SDS011;56119;50.118;8.642;2023-11-21T10:52:05;9.10;;;6.40;;
69047;SDS011;56119;50.118;8.642;2023-11-21T10:54:31;10.07;;;6.70;;
69047;SDS011;56119;50.118;8.642;2023-11-21T10:56:58;10.73;;;6.30;;
69047;SDS011;56119;50.118;8.642;2023-11-21T10:59:26;10.10;;;6.60;;
69047;SDS011;56119;50.118;8.642;2023-11-21T11:01:54;14.70;;;7.03;;
69047;SDS011;56119;50.118;8.642;2023-11-21T11:04:20;11.82;;;6.63;;
69047;SDS011;56119;50.118;8.642;2023-11-21T11:07:08;10.55;;;6.50;;
69047;SDS011;56119;50.118;8.642;2023-11-21T11:09:34;12.40;;;6.80;;
69047;SDS011;56119;50.118;8.642;2023-11-21T11:12:03;12.85;;;6.95;;
69047;SDS011;56119;50.118;8.642;2023-11-21T11:14:31;10.93;;;6.32;;
69047;SDS011;56119;50.118;8.642;2023-11-21T11:16:57;13.73;;;6.57;;
69047;SDS011;56119;50.118;8.642;2023-11-21T11:19:25;10.05;;;6.45;;
69047;SDS011;56119;50.118;8.642;2023-11-21T11:24:25;9.05;;;5.97;;
69047;SDS011;56119;50.118;8.642;2023-11-21T11:29:42;8.13;;;5.32;;
69047;SDS011;56119;50.118;8.642;2023-11-21T11:32:15;8.10;;;5.38;;
69047;SDS011;56119;50.118;8.642;2023-11-21T11:34:52;9.70;;;6.78;;
69047;SDS011;56119;50.118;8.642;2023-11-21T11:37:19;10.07;;;6.32;;
69047;SDS011;56119;50.118;8.642;2023-11-21T11:39:45;11.93;;;6.63;;
69047;SDS011;56119;50.118;8.642;2023-11-21T11:42:12;10.75;;;6.28;;
69047;SDS011;56119;50.118;8.642;2023-11-21T11:54:58;12.55;;;6.85;;
69047;SDS011;56119;50.118;8.642;2023-11-21T11:57:25;9.30;;;6.13;;
69047;SDS011;56119;50.118;8.642;2023-11-21T12:02:36;16.15;;;5.40;;
69047;SDS011;56119;50.118;8.642;2023-11-21T12:05:07;9.70;;;5.80;;
69047;SDS011;56119;50.118;8.642;2023-11-21T12:07:50;10.93;;;5.78;;
69047;SDS011;56119;50.118;8.642;2023-11-21T12:10:25;8.68;;;5.82;;
69047;SDS011;56119;50.118;8.642;2023-11-21T12:12:53;10.68;;;5.50;;
69047;SDS011;56119;50.118;8.642;2023-11-21T12:15:20;10.88;;;5.70;;
69047;SDS011;56119;50.118;8.642;2023-11-21T12:17:46;8.75;;;5.30;;
69047;SDS011;56119;50.118;8.642;2023-11-21T12:20:14;9.95;;;6.03;;
69047;SDS011;56119;50.118;8.642;2023-11-21T12:22:47;13.38;;;6.20;;
69047;SDS011;56119;50.118;8.642;2023-11-21T12:25:14;8.95;;;4.97;;
69047;SDS011;56119;50.118;8.642;2023-11-21T12:27:41;9.55;;;5.88;;
69047;SDS011;56119;50.118;8.642;2023-11-21T12:30:08;9.13;;;5.30;;
69047;SDS011;56119;50.118;8.642;2023-11-21T12:32:38;10.52;;;6.13;;
69047;SDS011;56119;50.118;8.642;2023-11-21T12:35:05;10.32;;;5.80;;
69047;SDS011;56119;50.118;8.642;2023-11-21T12:37:31;10.27;;;6.38;;
69047;SDS011;56119;50.118;8.642;2023-11-21T12:39:57;14.02;;;6.03;;
69047;SDS011;56119;50.118;8.642;2023-11-21T12:42:24;9.88;;;6.30;;
69047;SDS011;56119;50.118;8.642;2023-11-21T12:45:10;16.75;;;6.00;;
69047;SDS011;56119;50.118;8.642;2023-11-21T12:47:40;11.20;;;5.40;;
69047;SDS011;56119;50.118;8.642;2023-11-21T12:50:06;8.38;;;5.47;;
69047;SDS011;56119;50.118;8.642;2023-11-21T12:52:39;11.82;;;5.68;;
69047;SDS011;56119;50.118;8.642;2023-11-21T12:55:05;8.25;;;5.03;;
69047;SDS011;56119;50.118;8.642;2023-11-21T12:57:33;11.93;;;5.53;;
69047;SDS011;56119;50.118;8.642;2023-11-21T12:59:59;9.45;;;5.93;;
69047;SDS011;56119;50.118;8.642;2023-11-21T13:02:27;8.80;;;5.78;;
69047;SDS011;56119;50.118;8.642;2023-11-21T13:04:56;8.32;;;4.68;;
69047;SDS011;56119;50.118;8.642;2023-11-21T13:07:23;11.52;;;5.50;;
69047;SDS011;56119;50.118;8.642;2023-11-21T13:09:52;10.48;;;5.20;;
69047;SDS011;56119;50.118;8.642;2023-11-21T13:12:23;9.02;;;5.60;;
69047;SDS011;56119;50.118;8.642;2023-11-21T13:14:49;10.25;;;5.63;;
69047;SDS011;56119;50.118;8.642;2023-11-21T13:17:16;9.77;;;5.13;;
69047;SDS011;56119;50.118;8.642;2023-11-21T13:19:43;9.95;;;5.70;;
69047;SDS011;56119;50.118;8.642;2023-11-21T13:22:09;10.98;;;5.50;;
69047;SDS011;56119;50.118;8.642;2023-11-21T13:24:36;10.88;;;5.95;;
69047;SDS011;56119;50.118;8.642;2023-11-21T13:27:02;9.30;;;5.32;;
69047;SDS011;56119;50.118;8.642;2023-11-21T13:29:31;10.70;;;6.05;;
69047;SDS011;56119;50.118;8.642;2023-11-21T13:31:58;9.30;;;5.90;;
69047;SDS011;56119;50.118;8.642;2023-11-21T13:34:24;10.57;;;5.30;;
69047;SDS011;56119;50.118;8.642;2023-11-21T13:36:52;8.93;;;5.65;;
69047;SDS011;56119;50.118;8.642;2023-11-21T13:39:23;9.52;;;5.40;;
69047;SDS011;56119;50.118;8.642;2023-11-21T13:41:53;8.82;;;5.18;;
69047;SDS011;56119;50.118;8.642;2023-11-21T13:44:19;13.32;;;5.47;;
69047;SDS011;56119;50.118;8.642;2023-11-21T13:46:54;17.73;;;6.25;;
69047;SDS011;56119;50.118;8.642;2023-11-21T13:49:22;12.98;;;6.13;;
69047;SDS011;56119;50.118;8.642;2023-11-21T13:51:48;13.93;;;6.10;;
69047;SDS011;56119;50.118;8.642;2023-11-21T13:54:18;7.72;;;5.40;;
69047;SDS011;56119;50.118;8.642;2023-11-21T13:56:46;8.98;;;5.72;;
69047;SDS011;56119;50.118;8.642;2023-11-21T13:59:12;10.50;;;7.00;;
69047;SDS011;56119;50.118;8.642;2023-11-21T14:01:45;9.55;;;5.57;;
69047;SDS011;56119;50.118;8.642;2023-11-21T14:04:17;10.13;;;5.72;;
69047;SDS011;56119;50.118;8.642;2023-11-21T14:06:45;13.70;;;6.13;;
69047;SDS011;56119;50.118;8.642;2023-11-21T14:09:17;12.55;;;6.20;;
69047;SDS011;56119;50.118;8.642;2023-11-21T14:11:54;12.88;;;6.20;;
69047;SDS011;56119;50.118;8.642;2023-11-21T14:14:24;15.43;;;6.25;;
69047;SDS011;56119;50.118;8.642;2023-11-21T14:16:51;11.70;;;5.47;;
69047;SDS011;56119;50.118;8.642;2023-11-21T14:19:17;9.70;;;5.97;;
69047;SDS011;56119;50.118;8.642;2023-11-21T14:21:43;11.43;;;5.93;;
69047;SDS011;56119;50.118;8.642;2023-11-21T14:24:10;9.93;;;6.13;;
69047;SDS011;56119;50.118;8.642;2023-11-21T14:26:43;11.50;;;6.30;;
69047;SDS011;56119;50.118;8.642;2023-11-21T14:29:11;13.18;;;6.75;;
69047;SDS011;56119;50.118;8.642;2023-11-21T14:31:39;11.70;;;6.78;;
69047;SDS011;56119;50.118;8.642;2023-11-21T14:34:06;10.00;;;5.82;;
69047;SDS011;56119;50.118;8.642;2023-11-21T14:36:32;12.60;;;7.35;;
69047;SDS011;56119;50.118;8.642;2023-11-21T14:38:58;14.30;;;6.10;;
69047;SDS011;56119;50.118;8.642;2023-11-21T14:41:24;12.00;;;6.63;;
69047;SDS011;56119;50.118;8.642;2023-11-21T14:43:56;11.75;;;7.10;;
69047;SDS011;56119;50.118;8.642;2023-11-21T14:46:22;14.25;;;7.05;;
69047;SDS011;56119;50.118;8.642;2023-11-21T14:48:48;10.27;;;6.85;;
69047;SDS011;56119;50.118;8.642;2023-11-21T14:51:27;10.93;;;7.28;;
69047;SDS011;56119;50.118;8.642;2023-11-21T14:53:57;15.77;;;8.35;;
69047;SDS011;56119;50.118;8.642;2023-11-21T14:56:31;13.93;;;8.05;;
69047;SDS011;56119;50.118;8.642;2023-11-21T14:58:59;16.67;;;9.20;;
69047;SDS011;56119;50.118;8.642;2023-11-21T15:01:32;14.05;;;8.40;;